Time;durP1;ratioP1;P1;durP2;ratioP2;P2;SDS_P1;SDS_P2;PMS_P1;PMS_P2;Temp;Humidity;BMP_temperature;BMP_pressure;BME280_temperature;BME280_humidity;BME280_pressure;Samples;Min_cycle;Max_cycle;Signal;HPM_P1;HPM_P2
2022/04/10 00:00:16;;;;;;;13.38;3.42;;;2.70;95.80;;;;;;5060328;28;20044;-90
2022/04/10 00:02:42;;;;;;;13.90;3.80;;;2.60;99.90;;;;;;5058503;28;20389;-90
2022/04/10 00:05:09;;;;;;;14.90;3.15;;;2.60;99.90;;;;;;5044361;28;20060;-89
2022/04/10 00:07:35;;;;;;;21.98;2.92;;;2.60;99.90;;;;;;5042917;28;20035;-90
2022/04/10 00:10:00;;;;;;;12.57;3.33;;;2.60;99.90;;;;;;5041203;28;20428;-90
2022/04/10 00:12:27;;;;;;;10.95;2.65;;;2.50;99.90;;;;;;5042593;28;20063;-90
2022/04/10 00:14:52;;;;;;;16.45;3.00;;;2.60;99.90;;;;;;5043589;28;20091;-89
2022/04/10 00:17:18;;;;;;;16.27;3.25;;;2.60;99.90;;;;;;5041535;28;20041;-90
2022/04/10 00:19:45;;;;;;;18.70;3.80;;;2.60;99.90;;;;;;5043832;28;20055;-91
2022/04/10 00:22:12;;;;;;;14.60;3.35;;;2.60;99.90;;;;;;5059804;28;20119;-90
2022/04/10 00:24:37;;;;;;;12.27;3.22;;;2.60;99.90;;;;;;5062705;28;20045;-90
2022/04/10 00:27:05;;;;;;;16.23;3.20;;;2.50;99.90;;;;;;5046498;28;20136;-90
2022/04/10 00:29:33;;;;;;;10.85;2.85;;;2.50;99.90;;;;;;5047174;28;20473;-90
2022/04/10 00:31:59;;;;;;;11.60;3.28;;;2.50;99.90;;;;;;5045226;28;20040;-90
2022/04/10 00:34:24;;;;;;;19.02;3.55;;;2.50;99.90;;;;;;5047192;28;20407;-90
2022/04/10 00:36:50;;;;;;;16.58;3.50;;;2.60;99.90;;;;;;5045688;28;20519;-90
2022/04/10 00:39:16;;;;;;;13.77;3.25;;;2.50;35.10;;;;;;5044762;28;20191;-90
2022/04/10 00:41:42;;;;;;;12.35;2.65;;;2.50;99.90;;;;;;5046203;28;20040;-90
2022/04/10 00:44:14;;;;;;;9.25;2.80;;;2.50;20.90;;;;;;5046850;28;20039;-90
2022/04/10 00:46:41;;;;;;;15.45;2.70;;;2.50;23.90;;;;;;5045464;28;20033;-90
2022/04/10 00:49:07;;;;;;;13.23;3.60;;;2.50;75.70;;;;;;5046327;28;20168;-90
2022/04/10 00:51:46;;;;;;;13.73;2.95;;;2.50;20.30;;;;;;5044918;28;20037;-90
2022/04/10 00:54:30;;;;;;;14.98;4.05;;;2.50;98.00;;;;;;5062079;28;20032;-90
2022/04/10 00:56:57;;;;;;;17.80;2.90;;;2.50;47.20;;;;;;5061659;28;20139;-90
2022/04/10 00:59:24;;;;;;;17.85;3.25;;;2.50;99.90;;;;;;5046533;28;20487;-90
2022/04/10 01:01:50;;;;;;;13.57;2.83;;;2.60;46.30;;;;;;5037280;28;20041;-90
2022/04/10 01:04:16;;;;;;;12.07;3.25;;;2.60;1.00;;;;;;5044258;28;20044;-91
2022/04/10 01:06:49;;;;;;;14.73;3.03;;;2.60;1.00;;;;;;5045951;28;20039;-91
2022/04/10 01:09:20;;;;;;;15.95;3.30;;;2.70;42.90;;;;;;5044531;28;20033;-91
2022/04/10 01:11:45;;;;;;;19.30;3.33;;;2.70;1.00;;;;;;5043573;28;20131;-92
2022/04/10 01:14:13;;;;;;;10.45;2.95;;;2.70;1.00;;;;;;5047610;28;20119;-91
2022/04/10 01:16:39;;;;;;;16.70;2.85;;;2.70;1.00;;;;;;5045284;28;20527;-91
2022/04/10 01:19:05;;;;;;;10.88;3.22;;;2.70;1.00;;;;;;5046544;28;20037;-91
2022/04/10 01:21:40;;;;;;;16.13;3.25;;;2.70;1.00;;;;;;5043660;28;20033;-91
2022/04/10 01:24:10;;;;;;;13.93;3.08;;;2.70;1.00;;;;;;5047365;28;20041;-91
2022/04/10 01:26:36;;;;;;;15.85;2.55;;;2.70;1.00;;;;;;5046080;28;20032;-91
2022/04/10 01:29:07;;;;;;;13.60;3.55;;;2.80;1.00;;;;;;5046979;28;20105;-92
2022/04/10 01:31:44;;;;;;;12.57;2.85;;;2.70;99.90;;;;;;5043261;28;20047;-92
2022/04/10 01:34:13;;;;;;;11.23;2.92;;;2.70;1.00;;;;;;5061668;28;20035;-92
2022/04/10 01:36:40;;;;;;;14.98;2.80;;;2.60;1.00;;;;;;5045041;28;20036;-92
2022/04/10 01:39:08;;;;;;;14.77;2.85;;;2.60;99.90;;;;;;5044759;28;20092;-92
2022/04/10 01:41:34;;;;;;;16.60;3.00;;;2.70;1.00;;;;;;5062580;28;20032;-92
2022/04/10 01:44:01;;;;;;;18.77;4.05;;;2.70;99.90;;;;;;5059800;28;20032;-92
2022/04/10 01:46:31;;;;;;;12.10;3.20;;;2.70;99.90;;;;;;5045448;28;20570;-91
2022/04/10 01:48:58;;;;;;;12.02;2.53;;;2.70;99.90;;;;;;5060911;28;20051;-92
2022/04/10 01:51:24;;;;;;;9.38;3.15;;;2.70;1.00;;;;;;5059069;28;20085;-91
2022/04/10 01:53:51;;;;;;;12.27;3.10;;;2.60;1.00;;;;;;5044900;28;20044;-91
2022/04/10 01:56:17;;;;;;;9.10;2.85;;;2.60;99.90;;;;;;5045663;28;20048;-92
2022/04/10 01:58:44;;;;;;;10.52;3.33;;;2.60;99.90;;;;;;5063253;28;20115;-91
2022/04/10 02:01:13;;;;;;;14.68;3.22;;;2.60;99.90;;;;;;5062178;28;20063;-92
2022/04/10 02:03:43;;;;;;;12.77;3.22;;;2.50;99.90;;;;;;5045713;28;20044;-92
2022/04/10 02:06:11;;;;;;;16.27;2.92;;;2.50;99.90;;;;;;5044794;28;20123;-91
2022/04/10 02:08:38;;;;;;;13.43;2.72;;;2.50;99.90;;;;;;5045231;28;20060;-91
2022/04/10 02:11:15;;;;;;;13.02;3.17;;;2.40;99.90;;;;;;5072893;28;20559;-91
2022/04/10 02:13:42;;;;;;;7.20;2.38;;;2.40;99.90;;;;;;5061401;28;20044;-92
2022/04/10 02:16:13;;;;;;;14.98;3.00;;;2.40;99.90;;;;;;5044668;28;20044;-91
2022/04/10 02:18:40;;;;;;;13.18;3.40;;;2.40;1.00;;;;;;5045551;28;20052;-91
2022/04/10 02:21:05;;;;;;;15.57;3.40;;;2.30;99.90;;;;;;5045009;28;20096;-91
2022/04/10 02:23:31;;;;;;;14.45;3.00;;;2.30;99.90;;;;;;5044917;28;20120;-90
2022/04/10 02:25:58;;;;;;;14.18;3.20;;;2.10;99.90;;;;;;5044215;28;20142;-90
2022/04/10 02:28:23;;;;;;;14.07;3.33;;;2.10;1.00;;;;;;5044205;28;20044;-91
2022/04/10 02:30:49;;;;;;;14.27;2.90;;;2.10;1.00;;;;;;5045899;28;20040;-91
2022/04/10 02:33:16;;;;;;;17.77;3.30;;;2.20;1.00;;;;;;5038640;28;20043;-90
2022/04/10 02:35:42;;;;;;;16.20;3.42;;;2.10;1.00;;;;;;5062605;28;20040;-90
2022/04/10 02:38:07;;;;;;;12.95;3.00;;;2.10;1.00;;;;;;5043866;28;20037;-90
2022/04/10 02:40:33;;;;;;;11.07;3.22;;;2.10;1.00;;;;;;5040977;28;20051;-91
2022/04/10 02:42:59;;;;;;;14.82;3.22;;;2.00;1.00;;;;;;5044790;28;20047;-90
2022/04/10 02:45:25;;;;;;;15.15;3.88;;;2.00;1.00;;;;;;5044254;28;20094;-91
2022/04/10 02:47:51;;;;;;;11.18;2.65;;;2.10;99.90;;;;;;5043435;28;20051;-90
2022/04/10 02:50:16;;;;;;;17.60;2.65;;;2.10;1.00;;;;;;5045371;28;20065;-92
2022/04/10 02:52:42;;;;;;;10.73;2.80;;;2.20;99.90;;;;;;5044147;28;20037;-90
2022/04/10 02:55:09;;;;;;;10.43;2.20;;;2.20;99.90;;;;;;5043922;28;20044;-89
2022/04/10 02:57:38;;;;;;;24.42;3.45;;;2.30;99.90;;;;;;5043953;28;20139;-90
2022/04/10 03:00:05;;;;;;;11.65;2.72;;;2.40;99.90;;;;;;5045389;28;20117;-91
2022/04/10 03:02:32;;;;;;;15.35;2.55;;;2.40;99.90;;;;;;5044555;28;20980;-91
2022/04/10 03:05:00;;;;;;;11.80;2.85;;;2.50;99.90;;;;;;5063015;28;20040;-91
2022/04/10 03:07:26;;;;;;;10.68;2.63;;;2.60;99.90;;;;;;5043222;28;20356;-89
2022/04/10 03:09:52;;;;;;;10.32;2.45;;;2.80;99.90;;;;;;5042746;28;20436;-90
2022/04/10 03:12:18;;;;;;;9.30;2.13;;;2.90;99.90;;;;;;5043051;28;20040;-89
2022/04/10 03:14:43;;;;;;;11.82;2.70;;;3.00;99.90;;;;;;5044318;28;20032;-90
2022/04/10 03:17:09;;;;;;;9.82;2.13;;;3.00;99.90;;;;;;5043418;28;20076;-91
2022/04/10 03:19:35;;;;;;;9.13;2.33;;;2.90;99.90;;;;;;5042565;28;20092;-91
2022/04/10 03:22:15;;;;;;;13.80;2.35;;;2.90;99.90;;;;;;5044352;28;20391;-90
2022/04/10 03:24:41;;;;;;;14.73;2.45;;;2.90;99.90;;;;;;5042499;28;20036;-90
2022/04/10 03:27:07;;;;;;;11.10;2.75;;;2.90;99.90;;;;;;5043210;28;20028;-91
2022/04/10 03:29:32;;;;;;;9.93;2.30;;;2.90;99.90;;;;;;5039624;28;20108;-90
2022/04/10 03:31:59;;;;;;;9.23;2.30;;;2.80;99.90;;;;;;5038749;28;20059;-90
2022/04/10 03:34:25;;;;;;;8.32;2.35;;;2.90;99.90;;;;;;5043760;28;20040;-90
2022/04/10 03:36:51;;;;;;;9.88;2.35;;;2.90;99.90;;;;;;5043345;28;20124;-90
2022/04/10 03:39:16;;;;;;;11.07;2.17;;;2.80;99.90;;;;;;5043575;28;20155;-90
2022/04/10 03:41:42;;;;;;;8.77;2.05;;;3.00;99.90;;;;;;5043727;28;20073;-90
2022/04/10 03:44:08;;;;;;;8.30;1.83;;;3.00;99.90;;;;;;5043858;28;20141;-90
2022/04/10 03:46:33;;;;;;;10.43;2.40;;;3.10;63.70;;;;;;5042578;28;20043;-90
2022/04/10 03:49:02;;;;;;;9.82;1.70;;;3.20;61.90;;;;;;5044011;28;20131;-91
2022/04/10 03:51:28;;;;;;;8.80;2.17;;;3.20;99.90;;;;;;5042568;28;20045;-91
2022/04/10 03:53:53;;;;;;;8.32;1.65;;;3.20;77.90;;;;;;5043827;28;20085;-90
2022/04/10 03:56:19;;;;;;;5.00;1.40;;;3.30;99.90;;;;;;5042587;28;20047;-90
2022/04/10 03:58:45;;;;;;;8.48;1.73;;;3.30;98.80;;;;;;5062677;28;20110;-90
2022/04/10 04:01:11;;;;;;;7.85;1.75;;;3.30;99.90;;;;;;5046506;28;20040;-90
2022/04/10 04:03:38;;;;;;;6.53;1.77;;;3.30;99.90;;;;;;5047114;28;20098;-90
2022/04/10 04:06:06;;;;;;;5.45;1.55;;;3.30;99.90;;;;;;5045398;28;20541;-91
2022/04/10 04:08:32;;;;;;;8.25;1.85;;;3.30;99.90;;;;;;5064099;28;20101;-90
2022/04/10 04:10:58;;;;;;;6.97;1.58;;;3.30;99.90;;;;;;5044972;28;20135;-91
2022/04/10 04:13:24;;;;;;;8.10;2.25;;;3.20;99.90;;;;;;5046576;28;20044;-91
2022/04/10 04:15:51;;;;;;;6.50;1.52;;;3.10;99.90;;;;;;5048867;28;20588;-90
2022/04/10 04:18:17;;;;;;;5.32;1.83;;;3.00;99.90;;;;;;5048265;28;20052;-91
2022/04/10 04:20:43;;;;;;;4.15;1.50;;;3.10;99.90;;;;;;5063407;28;20044;-90
2022/04/10 04:23:08;;;;;;;5.35;1.70;;;3.00;1.00;;;;;;5047313;28;20067;-90
2022/04/10 04:25:34;;;;;;;4.70;1.20;;;3.00;1.00;;;;;;5045411;28;20507;-90
2022/04/10 04:28:00;;;;;;;4.70;1.58;;;2.90;99.90;;;;;;5046095;28;20067;-90
2022/04/10 04:30:25;;;;;;;3.80;1.45;;;2.90;1.00;;;;;;5046752;28;20245;-91
2022/04/10 04:32:51;;;;;;;6.80;1.75;;;2.90;1.00;;;;;;5045924;28;20054;-90
2022/04/10 04:35:17;;;;;;;3.50;1.42;;;2.80;99.90;;;;;;5048556;28;20040;-90
2022/04/10 04:37:43;;;;;;;7.05;1.40;;;2.80;99.90;;;;;;5044792;28;20044;-90
2022/04/10 04:40:10;;;;;;;3.50;1.55;;;2.80;99.90;;;;;;5061040;28;20047;-90
2022/04/10 04:42:39;;;;;;;6.63;1.80;;;2.90;99.90;;;;;;5047155;28;20320;-90
2022/04/10 04:45:05;;;;;;;6.78;1.40;;;2.80;1.00;;;;;;5063448;28;20052;-91
2022/04/10 04:47:31;;;;;;;4.80;1.13;;;2.80;1.00;;;;;;5062445;28;20024;-91
2022/04/10 04:49:57;;;;;;;6.25;1.58;;;2.80;1.00;;;;;;5046834;28;20125;-90
2022/04/10 04:52:23;;;;;;;10.07;1.50;;;2.70;1.00;;;;;;5062136;28;20047;-91
2022/04/10 04:54:48;;;;;;;7.60;1.55;;;2.80;1.00;;;;;;5045778;28;20047;-91
2022/04/10 04:57:14;;;;;;;8.63;1.75;;;2.70;1.00;;;;;;5046429;28;20079;-90
2022/04/10 04:59:40;;;;;;;8.25;1.90;;;2.70;10.90;;;;;;5046634;28;20105;-90
2022/04/10 05:02:05;;;;;;;5.80;1.48;;;2.70;1.00;;;;;;5045226;28;20055;-91
2022/04/10 05:04:31;;;;;;;3.45;1.33;;;2.80;63.50;;;;;;5043101;28;20044;-91
2022/04/10 05:06:57;;;;;;;2.67;1.50;;;2.70;43.80;;;;;;5056581;28;20033;-90
2022/04/10 05:09:22;;;;;;;3.85;1.27;;;2.60;9.20;;;;;;5044265;28;20036;-90
2022/04/10 05:11:48;;;;;;;5.25;1.50;;;2.60;95.90;;;;;;5063126;28;20126;-91
2022/04/10 05:14:14;;;;;;;6.20;1.90;;;2.60;99.90;;;;;;5040042;28;20056;-90
2022/04/10 05:16:39;;;;;;;5.72;1.77;;;2.70;99.90;;;;;;5046764;28;20036;-90
2022/04/10 05:19:05;;;;;;;9.60;1.70;;;2.70;99.90;;;;;;5046427;28;20044;-90
2022/04/10 05:21:31;;;;;;;7.85;1.52;;;2.70;99.90;;;;;;5045499;28;20025;-91
2022/04/10 05:23:59;;;;;;;6.82;1.70;;;2.80;99.90;;;;;;5045878;28;20620;-90
2022/04/10 05:26:25;;;;;;;8.40;1.90;;;2.80;99.90;;;;;;5044473;28;20168;-90
2022/04/10 05:28:50;;;;;;;5.32;1.52;;;2.80;99.90;;;;;;5063720;28;20044;-91
2022/04/10 05:31:16;;;;;;;6.57;1.70;;;2.80;99.90;;;;;;5046642;28;20059;-90
2022/04/10 05:33:42;;;;;;;8.52;1.65;;;2.80;99.90;;;;;;5046621;28;20048;-90
2022/04/10 05:36:07;;;;;;;6.53;1.70;;;2.80;99.90;;;;;;5045739;28;20040;-91
2022/04/10 05:38:33;;;;;;;12.07;2.17;;;2.90;99.90;;;;;;5045991;28;20093;-91
2022/04/10 05:41:02;;;;;;;5.03;1.55;;;2.80;99.90;;;;;;5045416;28;20048;-90
2022/04/10 05:43:29;;;;;;;5.80;1.63;;;2.80;99.90;;;;;;5045841;28;20044;-91
2022/04/10 05:45:55;;;;;;;5.40;1.75;;;2.80;99.90;;;;;;5041779;28;20549;-91
2022/04/10 05:48:21;;;;;;;6.70;1.77;;;2.90;99.90;;;;;;5046518;28;20040;-91
2022/04/10 05:50:47;;;;;;;9.20;1.83;;;3.00;99.90;;;;;;5045840;28;20036;-91
2022/04/10 05:53:13;;;;;;;7.25;1.60;;;3.00;99.90;;;;;;5045340;28;20043;-90
2022/04/10 05:55:38;;;;;;;8.35;1.80;;;3.20;99.90;;;;;;5045239;28;20032;-90
2022/04/10 05:58:04;;;;;;;5.80;1.70;;;3.30;99.90;;;;;;5044999;28;20036;-90
2022/04/10 06:00:30;;;;;;;5.38;1.70;;;3.50;99.90;;;;;;5046659;28;20032;-91
2022/04/10 06:03:00;;;;;;;3.55;1.77;;;3.60;1.00;;;;;;5045265;28;20037;-90
2022/04/10 06:05:25;;;;;;;6.18;1.60;;;3.70;1.00;;;;;;5046941;28;20538;-90
2022/04/10 06:07:51;;;;;;;7.47;2.00;;;3.70;1.00;;;;;;5062064;28;20025;-90
2022/04/10 06:10:17;;;;;;;6.70;1.80;;;3.70;1.00;;;;;;5058604;28;20124;-90
2022/04/10 06:12:46;;;;;;;7.00;1.63;;;3.60;8.70;;;;;;5045194;28;20041;-90
2022/04/10 06:15:12;;;;;;;9.43;2.20;;;3.50;52.00;;;;;;5046432;28;20127;-91
2022/04/10 06:17:37;;;;;;;7.93;1.98;;;3.40;95.20;;;;;;5045782;28;20124;-90
2022/04/10 06:20:04;;;;;;;7.00;2.17;;;3.40;99.90;;;;;;5044428;28;20075;-90
2022/04/10 06:22:29;;;;;;;6.57;1.58;;;3.50;99.90;;;;;;5044386;28;20127;-88
2022/04/10 06:24:55;;;;;;;9.70;1.90;;;3.60;99.90;;;;;;5043259;28;20510;-90
2022/04/10 06:27:21;;;;;;;8.50;1.67;;;3.60;99.90;;;;;;5045988;28;20055;-90
2022/04/10 06:29:47;;;;;;;6.75;2.03;;;3.60;59.80;;;;;;5044565;28;20045;-91
2022/04/10 06:32:13;;;;;;;5.85;1.95;;;3.70;29.00;;;;;;5045176;28;20359;-90
2022/04/10 06:34:39;;;;;;;6.65;1.75;;;3.80;1.00;;;;;;5035247;28;20045;-90
2022/04/10 06:37:05;;;;;;;8.60;1.92;;;3.90;1.00;;;;;;5044046;28;20165;-90
2022/04/10 06:39:31;;;;;;;6.47;1.60;;;4.20;99.90;;;;;;5042934;28;20444;-89
2022/04/10 06:41:56;;;;;;;5.63;1.80;;;4.30;99.90;;;;;;5061845;28;20036;-89
2022/04/10 06:44:22;;;;;;;3.97;1.75;;;4.20;99.90;;;;;;5061417;28;20488;-90
2022/04/10 06:46:48;;;;;;;8.35;1.73;;;4.10;40.20;;;;;;5043135;28;20062;-90
2022/04/10 06:49:14;;;;;;;9.43;2.15;;;4.00;99.90;;;;;;5043005;28;20044;-88
2022/04/10 06:51:40;;;;;;;9.63;2.35;;;3.80;99.90;;;;;;5059356;28;20058;-88
2022/04/10 06:54:25;;;;;;;8.10;2.42;;;3.80;1.00;;;;;;5059006;28;20125;-88
2022/04/10 06:56:51;;;;;;;6.47;2.00;;;3.60;99.90;;;;;;5041759;28;20095;-87
2022/04/10 06:59:16;;;;;;;5.10;1.75;;;3.60;99.90;;;;;;5045336;28;20040;-88
2022/04/10 07:01:42;;;;;;;6.25;2.17;;;3.70;99.90;;;;;;5044942;28;20032;-88
2022/04/10 07:04:08;;;;;;;9.68;2.20;;;3.90;9.70;;;;;;5044569;28;20048;-88
2022/04/10 07:06:33;;;;;;;8.32;1.92;;;4.00;99.90;;;;;;5045883;28;20489;-88
2022/04/10 07:09:08;;;;;;;7.63;1.85;;;4.20;99.90;;;;;;5057855;28;20171;-88
2022/04/10 07:11:33;;;;;;;9.88;2.28;;;4.30;99.90;;;;;;5061889;28;20408;-90
2022/04/10 07:13:59;;;;;;;5.38;2.03;;;4.40;99.90;;;;;;5042491;28;20037;-89
2022/04/10 07:16:25;;;;;;;5.05;2.00;;;4.60;92.40;;;;;;5043941;28;20467;-90
2022/04/10 07:18:50;;;;;;;6.90;2.10;;;4.90;1.00;;;;;;5042819;28;20268;-89
2022/04/10 07:23:41;;;;;;;5.22;2.03;;;5.00;99.90;;;;;;5041313;28;20480;-89
2022/04/10 07:24:02;;;;;;;9.23;2.38;;;5.10;99.90;;;;;;5058124;28;20099;-90
2022/04/10 07:26:28;;;;;;;6.90;2.55;;;5.00;99.90;;;;;;5044127;28;20489;-89
2022/04/10 07:28:53;;;;;;;7.80;2.25;;;5.00;99.90;;;;;;5044044;28;20032;-90
2022/04/10 07:31:19;;;;;;;10.80;2.28;;;5.10;99.90;;;;;;5043755;28;20036;-90
2022/04/10 07:33:45;;;;;;;11.48;2.45;;;5.40;99.90;;;;;;5043816;28;20661;-89
2022/04/10 07:36:10;;;;;;;7.25;2.03;;;5.70;14.80;;;;;;5043218;28;20036;-89
2022/04/10 07:38:36;;;;;;;8.82;2.00;;;5.70;99.90;;;;;;5042978;28;20818;-89
2022/04/10 07:41:02;;;;;;;8.75;2.95;;;5.70;1.00;;;;;;5075523;28;20059;-89
2022/04/10 07:43:28;;;;;;;7.40;1.95;;;5.90;1.00;;;;;;5041588;28;20036;-89
2022/04/10 07:48:38;;;;;;;6.40;1.90;;;6.00;99.90;;;;;;5060289;28;20068;-89
2022/04/10 07:51:04;;;;;;;5.07;1.80;;;6.00;99.90;;;;;;5042451;28;20036;-89
2022/04/10 07:53:30;;;;;;;7.10;2.13;;;6.00;99.90;;;;;;5058872;28;20036;-90
2022/04/10 07:55:57;;;;;;;7.50;2.00;;;6.30;99.90;;;;;;5041425;28;20361;-89
2022/04/10 07:58:23;;;;;;;6.38;1.52;;;6.30;99.90;;;;;;5043046;28;20044;-89
2022/04/10 08:00:48;;;;;;;6.35;1.90;;;6.40;99.90;;;;;;5044686;28;20063;-90
2022/04/10 08:03:14;;;;;;;9.50;2.05;;;6.50;99.90;;;;;;5043789;28;20392;-90
2022/04/10 08:05:40;;;;;;;7.65;1.50;;;6.50;99.90;;;;;;5037128;28;20184;-90
2022/04/10 08:08:06;;;;;;;7.13;1.70;;;6.60;99.90;;;;;;5042305;28;20232;-90
2022/04/10 08:10:32;;;;;;;7.30;1.67;;;6.70;99.90;;;;;;5059812;28;20048;-89
2022/04/10 08:12:58;;;;;;;8.73;2.53;;;6.80;99.90;;;;;;5043040;28;20037;-90
2022/04/10 08:15:27;;;;;;;7.00;2.00;;;6.90;99.90;;;;;;5043609;28;20048;-90
2022/04/10 08:17:53;;;;;;;8.75;2.03;;;6.70;99.90;;;;;;5043142;28;20139;-90
2022/04/10 08:20:18;;;;;;;9.80;2.25;;;7.00;99.90;;;;;;5045065;28;20048;-90
2022/04/10 08:22:48;;;;;;;5.50;1.60;;;7.20;99.90;;;;;;5060418;28;20067;-89
2022/04/10 08:25:16;;;;;;;8.95;1.77;;;7.20;99.90;;;;;;5041993;28;20535;-89
2022/04/10 08:27:42;;;;;;;9.82;2.42;;;7.50;99.90;;;;;;5043294;28;20066;-90
2022/04/10 08:30:09;;;;;;;8.50;1.90;;;7.40;99.90;;;;;;5042780;28;20550;-89
2022/04/10 08:32:39;;;;;;;7.65;1.85;;;7.50;58.30;;;;;;5045377;28;20145;-91
2022/04/10 08:35:06;;;;;;;8.68;1.80;;;7.80;61.70;;;;;;5073344;28;20550;-88
2022/04/10 08:37:32;;;;;;;9.25;2.20;;;7.80;66.00;;;;;;5044381;28;20521;-90
2022/04/10 08:39:58;;;;;;;10.38;1.95;;;7.70;1.00;;;;;;5043624;28;20423;-89
2022/04/10 08:42:24;;;;;;;7.57;1.80;;;7.60;1.00;;;;;;5058805;28;20288;-89
2022/04/10 08:44:50;;;;;;;6.43;1.63;;;8.10;5.00;;;;;;5064390;28;20059;-90
2022/04/10 08:47:20;;;;;;;8.32;2.13;;;8.10;1.00;;;;;;5045921;28;20113;-90
2022/04/10 08:49:47;;;;;;;5.35;1.95;;;8.00;25.50;;;;;;5045856;28;20040;-90
2022/04/10 08:52:15;;;;;;;6.55;1.80;;;7.60;1.00;;;;;;5044236;28;20480;-90
2022/04/10 08:54:41;;;;;;;7.95;2.22;;;7.50;1.00;;;;;;5042692;28;20409;-90
2022/04/10 08:57:07;;;;;;;9.88;1.80;;;7.70;1.00;;;;;;5056476;28;20134;-91
2022/04/10 08:59:33;;;;;;;17.23;2.35;;;7.80;1.00;;;;;;5046444;28;20186;-90
2022/04/10 09:01:59;;;;;;;9.98;1.50;;;8.00;1.00;;;;;;5042949;28;20044;-90
2022/04/10 09:04:25;;;;;;;10.70;1.73;;;8.00;1.00;;;;;;5043408;28;20561;-90
2022/04/10 09:07:07;;;;;;;7.95;2.25;;;8.10;1.00;;;;;;5043713;28;20259;-90
2022/04/10 09:09:34;;;;;;;6.90;1.73;;;8.10;1.00;;;;;;5038035;28;20068;-89
2022/04/10 09:12:00;;;;;;;8.05;1.80;;;8.20;1.00;;;;;;5062591;28;20110;-90
2022/04/10 09:14:28;;;;;;;10.32;1.90;;;8.40;1.00;;;;;;5044985;28;20036;-90
2022/04/10 09:17:17;;;;;;;7.03;1.60;;;8.40;1.00;;;;;;5043870;28;20087;-90
2022/04/10 09:19:51;;;;;;;8.10;2.00;;;8.40;1.00;;;;;;5043429;28;20090;-90
2022/04/10 09:22:23;;;;;;;7.87;1.63;;;8.10;1.00;;;;;;5044082;28;20563;-90
2022/04/10 09:25:13;;;;;;;10.65;1.85;;;8.20;1.00;;;;;;5043111;28;20298;-89
2022/04/10 09:27:40;;;;;;;3.92;1.63;;;8.30;57.50;;;;;;5044151;28;20131;-90
2022/04/10 09:30:10;;;;;;;5.35;1.00;;;8.00;1.00;;;;;;5045980;28;20037;-90
2022/04/10 09:32:51;;;;;;;7.72;1.30;;;8.20;1.00;;;;;;5059917;28;20347;-89
2022/04/10 09:35:21;;;;;;;3.92;1.05;;;8.10;1.00;;;;;;5059703;28;20052;-89
2022/04/10 09:37:51;;;;;;;8.35;1.70;;;8.10;1.00;;;;;;5061579;28;20115;-90
2022/04/10 09:40:43;;;;;;;4.57;1.10;;;8.40;1.00;;;;;;5062731;28;20071;-90
2022/04/10 09:43:10;;;;;;;3.17;1.00;;;8.50;1.00;;;;;;5058242;28;20081;-90
2022/04/10 09:45:42;;;;;;;6.38;1.35;;;8.50;1.00;;;;;;5048883;28;20559;-89
2022/04/10 09:48:31;;;;;;;6.82;1.13;;;8.50;1.00;;;;;;5045523;28;20068;-89
2022/04/10 09:50:59;;;;;;;7.20;1.52;;;8.60;99.90;;;;;;5043144;28;20040;-90
2022/04/10 09:53:26;;;;;;;5.68;1.80;;;8.70;99.90;;;;;;5061801;28;20041;-90
2022/04/10 09:56:02;;;;;;;6.70;1.77;;;9.00;1.00;;;;;;5076752;28;20098;-91
2022/04/10 09:58:29;;;;;;;9.18;1.70;;;9.20;1.00;;;;;;5064282;28;20106;-90
2022/04/10 10:00:57;;;;;;;6.07;1.83;;;9.30;1.00;;;;;;5062606;28;20048;-89
2022/04/10 10:03:25;;;;;;;5.90;1.45;;;9.20;1.00;;;;;;5039154;28;20488;-89
2022/04/10 10:05:52;;;;;;;7.68;1.88;;;9.40;1.00;;;;;;5044406;28;20112;-91
2022/04/10 10:08:18;;;;;;;7.47;1.80;;;9.50;1.00;;;;;;5044956;28;20471;-89
2022/04/10 10:10:45;;;;;;;8.35;2.15;;;8.80;1.00;;;;;;5059542;28;20041;-90
2022/04/10 10:13:14;;;;;;;6.93;1.80;;;8.90;1.00;;;;;;5061221;28;20059;-91
2022/04/10 10:15:41;;;;;;;10.45;2.03;;;9.20;1.00;;;;;;5045032;28;20032;-90
2022/04/10 10:18:12;;;;;;;6.32;1.73;;;9.50;16.80;;;;;;5044093;28;20051;-90
2022/04/10 10:20:40;;;;;;;6.90;1.55;;;9.10;1.00;;;;;;5041551;28;20039;-90
2022/04/10 10:23:11;;;;;;;9.07;2.45;;;8.70;1.00;;;;;;5043770;28;20107;-90
2022/04/10 10:26:00;;;;;;;5.78;1.60;;;9.20;1.00;;;;;;5043117;28;20048;-90
2022/04/10 10:29:02;;;;;;;5.45;1.80;;;9.10;1.00;;;;;;5076065;28;20736;-90
2022/04/10 10:31:58;;;;;;;7.88;1.80;;;9.40;1.00;;;;;;5054331;28;20120;-90
2022/04/10 10:34:26;;;;;;;8.07;1.90;;;9.40;1.00;;;;;;5045332;28;20036;-90
2022/04/10 10:36:54;;;;;;;7.20;1.45;;;9.40;1.00;;;;;;5043995;28;20040;-89
2022/04/10 10:39:20;;;;;;;8.13;1.90;;;9.20;1.00;;;;;;5059096;28;20541;-90
2022/04/10 10:41:50;;;;;;;7.25;1.55;;;8.60;1.00;;;;;;5045181;28;20071;-89
2022/04/10 10:44:18;;;;;;;8.45;2.10;;;8.00;1.00;;;;;;5043707;28;20045;-90
2022/04/10 10:47:02;;;;;;;8.10;2.40;;;8.30;1.00;;;;;;5044876;28;20044;-90
2022/04/10 10:49:42;;;;;;;7.30;2.10;;;8.20;1.00;;;;;;5038601;28;20116;-91
2022/04/10 10:52:09;;;;;;;10.18;2.53;;;8.50;1.00;;;;;;5040344;28;20044;-90
2022/04/10 10:54:42;;;;;;;7.15;2.10;;;9.10;1.00;;;;;;5042008;28;20131;-90
2022/04/10 10:57:23;;;;;;;6.55;1.95;;;9.60;16.70;;;;;;5043295;28;20036;-90
2022/04/10 11:00:07;;;;;;;7.82;1.90;;;9.90;1.00;;;;;;5037326;28;20051;-91
2022/04/10 11:02:35;;;;;;;5.85;2.00;;;9.60;1.00;;;;;;5059792;28;20503;-89
2022/04/10 11:05:08;;;;;;;7.75;2.03;;;9.20;1.00;;;;;;5061956;28;20090;-90
2022/04/10 11:07:39;;;;;;;9.27;2.00;;;8.90;1.00;;;;;;5042273;28;20116;-90
2022/04/10 11:10:11;;;;;;;7.20;1.80;;;8.70;1.00;;;;;;5042884;28;20064;-90
2022/04/10 11:12:49;;;;;;;5.88;1.50;;;8.40;1.00;;;;;;5060220;28;20121;-90
2022/04/10 11:15:21;;;;;;;5.72;1.77;;;8.30;1.00;;;;;;5061019;28;20063;-90
2022/04/10 11:17:48;;;;;;;8.40;1.90;;;8.30;1.00;;;;;;5043258;28;20055;-90
2022/04/10 11:20:15;;;;;;;6.85;2.15;;;9.10;1.00;;;;;;5061393;28;20129;-90
2022/04/10 11:22:53;;;;;;;4.03;1.77;;;9.60;1.00;;;;;;5043654;28;20055;-90
2022/04/10 11:25:30;;;;;;;5.25;1.75;;;9.80;1.00;;;;;;5054169;28;20083;-90
2022/04/10 11:27:58;;;;;;;6.70;1.92;;;10.20;1.00;;;;;;5058146;28;20085;-89
2022/04/10 11:30:41;;;;;;;7.43;1.60;;;10.40;1.00;;;;;;5042989;28;20044;-90
2022/04/10 11:33:09;;;;;;;5.38;1.35;;;10.20;99.90;;;;;;5041320;28;20380;-89
2022/04/10 11:35:37;;;;;;;4.07;1.30;;;9.80;99.90;;;;;;5042680;28;20036;-90
2022/04/10 11:38:15;;;;;;;6.07;1.60;;;9.80;99.90;;;;;;5042130;28;20033;-90
2022/04/10 11:40:50;;;;;;;7.53;1.90;;;10.40;99.90;;;;;;5041835;28;20544;-89
2022/04/10 11:43:18;;;;;;;8.13;1.58;;;10.70;99.90;;;;;;5056036;28;20052;-90
2022/04/10 11:45:45;;;;;;;9.57;1.50;;;10.00;99.90;;;;;;5041926;28;20040;-89
2022/04/10 11:48:11;;;;;;;4.57;1.20;;;10.30;99.90;;;;;;5040941;28;20056;-90
2022/04/10 11:50:39;;;;;;;6.25;1.52;;;10.10;99.90;;;;;;5060380;28;20048;-89
2022/04/10 11:53:07;;;;;;;4.45;1.20;;;10.10;99.90;;;;;;5040470;28;20507;-90
2022/04/10 11:55:39;;;;;;;3.47;0.98;;;9.40;99.90;;;;;;5038948;28;20040;-90
2022/04/10 11:58:19;;;;;;;6.30;1.23;;;9.70;99.90;;;;;;5058357;28;20036;-89
2022/04/10 12:00:47;;;;;;;8.32;1.42;;;10.40;99.90;;;;;;5043520;28;20102;-91
2022/04/10 12:03:12;;;;;;;4.85;1.48;;;10.70;99.90;;;;;;5042671;28;20047;-90
2022/04/10 12:05:38;;;;;;;6.53;1.55;;;10.40;99.90;;;;;;5046606;28;20102;-92
2022/04/10 12:08:05;;;;;;;3.42;1.52;;;10.80;99.90;;;;;;5036726;28;20483;-88
2022/04/10 12:10:31;;;;;;;5.80;1.40;;;9.90;99.90;;;;;;5058469;28;20143;-90
2022/04/10 12:12:59;;;;;;;4.55;1.30;;;9.50;99.90;;;;;;5057298;28;20124;-88
2022/04/10 12:15:25;;;;;;;6.57;1.33;;;10.00;99.90;;;;;;5061169;28;20110;-89
2022/04/10 12:18:12;;;;;;;5.03;1.50;;;10.60;99.90;;;;;;5038634;28;20041;-89
2022/04/10 12:20:43;;;;;;;8.32;2.13;;;10.90;99.90;;;;;;5046865;28;20050;-89
2022/04/10 12:23:17;;;;;;;7.40;1.50;;;10.30;99.90;;;;;;5063051;28;20041;-91
2022/04/10 12:25:43;;;;;;;2.17;1.20;;;10.20;99.90;;;;;;5039150;28;20037;-90
2022/04/10 12:28:09;;;;;;;9.23;1.70;;;10.60;99.90;;;;;;5047762;28;20515;-89
2022/04/10 12:30:38;;;;;;;4.07;1.40;;;10.90;99.90;;;;;;5043978;28;20517;-85
2022/04/10 12:33:05;;;;;;;3.88;1.20;;;11.50;99.90;;;;;;5046424;28;20048;-87
2022/04/10 12:35:39;;;;;;;5.57;1.48;;;11.80;99.90;;;;;;5046390;28;20048;-87
2022/04/10 12:38:08;;;;;;;6.60;1.70;;;11.70;99.90;;;;;;5060810;28;20044;-87
2022/04/10 12:40:37;;;;;;;8.77;1.50;;;10.90;99.90;;;;;;5059697;28;20048;-88
2022/04/10 12:43:05;;;;;;;5.18;1.40;;;10.40;99.90;;;;;;5045666;28;20036;-85
2022/04/10 12:45:32;;;;;;;3.22;1.30;;;10.30;99.90;;;;;;5063515;28;20455;-86
2022/04/10 12:47:59;;;;;;;4.07;1.30;;;10.10;99.90;;;;;;5043596;28;20583;-86
2022/04/10 12:50:26;;;;;;;5.10;1.55;;;10.80;99.90;;;;;;5062576;28;20608;-86
2022/04/10 12:52:54;;;;;;;2.83;1.10;;;11.00;99.90;;;;;;5063258;28;20161;-86
2022/04/10 12:55:21;;;;;;;4.25;1.40;;;11.10;99.90;;;;;;5045653;28;20043;-86
2022/04/10 12:58:01;;;;;;;6.00;1.30;;;11.70;99.90;;;;;;5044249;28;20123;-86
2022/04/10 13:00:35;;;;;;;5.85;1.20;;;11.50;99.90;;;;;;5063162;28;20068;-86
2022/04/10 13:03:27;;;;;;;7.13;1.60;;;11.50;99.90;;;;;;5060166;28;20043;-85
2022/04/10 13:06:15;;;;;;;4.57;1.30;;;12.20;99.90;;;;;;5041811;28;20040;-85